createdAt,value
2023-05-12T00:00:25.886Z,19.90
2023-05-12T00:02:55.331Z,20.07
2023-05-12T00:05:22.403Z,20.43
2023-05-12T00:07:51.479Z,19.97
2023-05-12T00:10:21.554Z,18.97
2023-05-12T00:12:48.866Z,19.50
2023-05-12T00:15:15.702Z,19.67
2023-05-12T00:17:42.834Z,18.80
2023-05-12T00:20:11.384Z,17.20
2023-05-12T00:22:41.733Z,18.13
2023-05-12T00:25:09.025Z,18.80
2023-05-12T00:27:38.407Z,17.43
2023-05-12T00:32:36.690Z,16.80
2023-05-12T00:35:04.023Z,15.57
2023-05-12T00:37:30.893Z,14.30
2023-05-12T00:39:59.877Z,13.97
2023-05-12T00:42:26.723Z,12.47
2023-05-12T00:44:55.619Z,12.70
2023-05-12T00:47:22.635Z,13.00
2023-05-12T00:49:51.989Z,12.10
2023-05-12T00:52:19.760Z,11.40
2023-05-12T00:54:48.297Z,11.77
2023-05-12T00:57:15.312Z,12.23
2023-05-12T00:59:42.141Z,11.07
2023-05-12T01:02:09.080Z,10.57
2023-05-12T01:04:36.468Z,11.40
2023-05-12T01:07:10.539Z,10.60
2023-05-12T01:09:37.482Z,10.00
2023-05-12T01:12:04.825Z,9.00
2023-05-12T01:14:34.609Z,9.10
2023-05-12T01:17:08.893Z,10.43
2023-05-12T01:19:43.824Z,8.70
2023-05-12T01:22:12.336Z,8.83
2023-05-12T01:25:05.647Z,8.77
2023-05-12T01:27:36.588Z,8.90
2023-05-12T01:30:07.715Z,9.10
2023-05-12T01:32:36.522Z,8.77
2023-05-12T01:35:05.985Z,7.87
2023-05-12T01:37:32.996Z,8.40
2023-05-12T01:40:02.980Z,8.40
2023-05-12T01:42:29.920Z,8.50
2023-05-12T01:44:56.755Z,8.40
2023-05-12T01:47:23.762Z,8.27
2023-05-12T01:49:51.300Z,8.10
2023-05-12T01:52:18.161Z,8.87
2023-05-12T01:54:45.039Z,7.10
2023-05-12T01:57:11.966Z,8.47
2023-05-12T01:59:41.968Z,7.50
2023-05-12T02:02:09.055Z,8.07
2023-05-12T02:04:40.680Z,7.67
2023-05-12T02:07:07.583Z,7.33
2023-05-12T02:09:34.521Z,8.10
2023-05-12T02:12:02.310Z,7.47
2023-05-12T02:14:29.188Z,7.70
2023-05-12T02:16:59.040Z,7.27
2023-05-12T02:19:25.962Z,7.57
2023-05-12T02:21:54.934Z,7.97
2023-05-12T02:24:21.794Z,8.30
2023-05-12T02:26:50.873Z,7.90
2023-05-12T02:29:18.535Z,7.17
2023-05-12T02:31:45.833Z,7.20
2023-05-12T02:34:15.802Z,8.40
2023-05-12T02:36:42.966Z,7.10
2023-05-12T02:39:09.889Z,7.73
2023-05-12T02:41:36.758Z,8.07
2023-05-12T02:44:03.694Z,8.17
2023-05-12T02:46:30.523Z,8.37
2023-05-12T02:48:57.495Z,7.87
2023-05-12T02:51:28.984Z,7.47
2023-05-12T02:53:56.324Z,7.83
2023-05-12T02:56:27.797Z,6.60
2023-05-12T02:58:57.251Z,6.77
2023-05-12T03:01:26.855Z,6.97
2023-05-12T03:03:53.797Z,7.80
2023-05-12T03:06:20.872Z,7.00
2023-05-12T03:08:50.390Z,7.63
2023-05-12T03:11:17.238Z,7.90
2023-05-12T03:13:44.246Z,7.97
2023-05-12T03:16:13.159Z,8.20
2023-05-12T03:18:43.558Z,8.70
2023-05-12T03:21:13.132Z,8.23
2023-05-12T03:23:40.087Z,8.83
2023-05-12T03:26:06.962Z,8.63
2023-05-12T03:28:33.850Z,7.97
2023-05-12T03:31:03.259Z,8.70
2023-05-12T03:33:30.314Z,7.20
2023-05-12T03:35:57.200Z,9.30
2023-05-12T03:38:24.098Z,8.33
2023-05-12T03:40:53.491Z,8.03
2023-05-12T03:43:27.386Z,7.77
2023-05-12T03:45:57.212Z,7.60
2023-05-12T03:48:26.426Z,7.80
2023-05-12T03:50:53.266Z,8.30
2023-05-12T03:53:22.213Z,8.67
2023-05-12T03:55:49.060Z,7.70
2023-05-12T03:58:16.137Z,8.13
2023-05-12T04:00:44.165Z,7.77
2023-05-12T04:03:13.767Z,7.90
2023-05-12T04:05:42.600Z,8.47
2023-05-12T04:08:09.931Z,8.70
2023-05-12T04:10:41.068Z,8.40
2023-05-12T04:13:11.104Z,8.57
2023-05-12T04:15:41.009Z,8.73
2023-05-12T04:18:07.884Z,8.80
2023-05-12T04:20:34.730Z,8.90
2023-05-12T04:23:01.578Z,8.90
2023-05-12T04:25:30.831Z,9.80
2023-05-12T04:27:57.785Z,9.23
2023-05-12T04:30:29.384Z,9.30
2023-05-12T04:32:56.261Z,9.17
2023-05-12T04:35:25.345Z,9.00
2023-05-12T04:37:52.612Z,9.90
2023-05-12T04:40:21.851Z,9.77
2023-05-12T04:42:49.003Z,8.73
2023-05-12T04:45:15.981Z,8.80
2023-05-12T04:47:42.901Z,10.00
2023-05-12T04:50:12.496Z,9.10
2023-05-12T04:52:44.126Z,9.33
2023-05-12T04:55:18.446Z,9.90
2023-05-12T04:57:47.635Z,10.90
2023-05-12T05:00:14.995Z,8.67
2023-05-12T05:02:44.355Z,7.93
2023-05-12T05:05:11.907Z,9.77
2023-05-12T05:07:38.894Z,8.83
2023-05-12T05:10:07.210Z,9.10
2023-05-12T05:12:34.105Z,8.83
2023-05-12T05:15:03.166Z,8.40
2023-05-12T05:17:33.580Z,8.73
2023-05-12T05:20:00.578Z,8.90
2023-05-12T05:22:27.531Z,8.40
2023-05-12T05:24:54.758Z,7.80
2023-05-12T05:27:21.602Z,7.70
2023-05-12T05:29:49.374Z,8.27
2023-05-12T05:32:16.678Z,7.93
2023-05-12T05:34:45.883Z,8.20
2023-05-12T05:37:12.945Z,8.50
2023-05-12T05:39:41.974Z,7.70
2023-05-12T05:42:08.836Z,8.20
2023-05-12T05:44:36.093Z,7.60
2023-05-12T05:47:03.161Z,7.60
2023-05-12T05:49:32.483Z,8.30
2023-05-12T05:51:59.303Z,8.43
2023-05-12T05:54:28.656Z,7.90
2023-05-12T05:56:55.487Z,8.30
2023-05-12T05:59:22.366Z,8.00
2023-05-12T06:01:54.014Z,8.13
2023-05-12T06:04:21.126Z,14.47
2023-05-12T06:06:48.231Z,8.93
2023-05-12T06:09:15.813Z,7.07
2023-05-12T06:11:45.653Z,7.70
2023-05-12T06:14:12.543Z,7.87
2023-05-12T06:16:39.712Z,7.30
2023-05-12T06:19:09.343Z,7.43
2023-05-12T06:21:36.293Z,7.37
2023-05-12T06:24:08.802Z,7.30
2023-05-12T06:26:36.698Z,6.73
2023-05-12T06:29:06.598Z,7.50
2023-05-12T06:31:33.551Z,7.10
2023-05-12T06:34:03.772Z,7.87
2023-05-12T06:36:30.701Z,6.93
2023-05-12T06:38:57.667Z,7.10
2023-05-12T06:41:27.069Z,6.80
2023-05-12T06:43:53.998Z,6.50
2023-05-12T06:46:23.316Z,5.90
2023-05-12T06:48:50.214Z,7.37
2023-05-12T06:51:19.306Z,6.60
2023-05-12T06:53:48.595Z,7.43
2023-05-12T06:56:17.094Z,6.10
2023-05-12T06:58:44.313Z,6.40
2023-05-12T07:01:11.251Z,6.60
2023-05-12T07:03:38.652Z,7.23
2023-05-12T07:06:05.776Z,6.73
2023-05-12T07:08:35.042Z,6.37
2023-05-12T07:11:02.084Z,6.10
2023-05-12T07:13:29.222Z,6.20
2023-05-12T07:15:58.377Z,7.17
2023-05-12T07:18:25.660Z,6.30
2023-05-12T07:20:53.330Z,5.90
2023-05-12T07:23:22.376Z,5.67
2023-05-12T07:25:52.305Z,6.40
2023-05-12T07:28:19.194Z,6.20
2023-05-12T07:30:48.672Z,6.83
2023-05-12T07:33:15.621Z,6.30
2023-05-12T07:35:42.540Z,6.07
2023-05-12T07:38:09.716Z,6.17
2023-05-12T07:40:36.595Z,6.10
2023-05-12T07:43:05.989Z,6.53
2023-05-12T07:45:32.945Z,5.83
2023-05-12T07:48:02.761Z,6.37
2023-05-12T07:50:32.319Z,6.40
2023-05-12T07:52:59.202Z,6.87
2023-05-12T07:55:28.625Z,5.83
2023-05-12T07:58:02.614Z,7.30
2023-05-12T08:00:29.973Z,6.43
2023-05-12T08:02:57.172Z,6.17
2023-05-12T08:05:24.250Z,6.90
2023-05-12T08:07:53.679Z,5.90
2023-05-12T08:10:20.705Z,6.53
2023-05-12T08:12:50.695Z,6.13
2023-05-12T08:15:18.010Z,6.70
2023-05-12T08:17:45.368Z,6.67
2023-05-12T08:20:12.801Z,6.20
2023-05-12T08:22:40.088Z,6.57
2023-05-12T08:25:12.419Z,6.53
2023-05-12T08:27:39.785Z,6.23
2023-05-12T08:30:10.459Z,5.57
2023-05-12T08:32:37.720Z,6.23
2023-05-12T08:35:05.214Z,6.27
2023-05-12T08:37:34.577Z,6.30
2023-05-12T08:40:02.493Z,6.30
2023-05-12T08:42:43.765Z,5.77
2023-05-12T08:45:16.712Z,6.90
2023-05-12T08:47:46.545Z,5.63
2023-05-12T08:50:18.029Z,5.80
2023-05-12T08:52:47.517Z,5.00
2023-05-12T08:55:15.536Z,5.77
2023-05-12T08:57:48.364Z,5.50
2023-05-12T09:00:19.418Z,5.60
2023-05-12T09:02:55.174Z,5.10
2023-05-12T09:05:25.240Z,5.27
2023-05-12T09:07:58.096Z,5.53
2023-05-12T09:10:35.289Z,5.23
2023-05-12T09:13:23.046Z,5.23
2023-05-12T09:15:56.508Z,4.77
2023-05-12T09:18:26.210Z,5.33
2023-05-12T09:20:53.142Z,5.47
2023-05-12T09:23:26.063Z,5.20
2023-05-12T09:26:02.389Z,5.20
2023-05-12T09:28:39.372Z,4.33
2023-05-12T09:31:24.486Z,4.93
2023-05-12T09:33:52.161Z,4.43
2023-05-12T09:36:24.226Z,5.00
2023-05-12T09:39:09.171Z,5.63
2023-05-12T09:41:37.882Z,4.70
2023-05-12T09:44:08.996Z,4.60
2023-05-12T09:46:38.699Z,4.80
2023-05-12T09:49:06.010Z,4.40
2023-05-12T09:51:33.258Z,4.73
2023-05-12T09:54:00.815Z,4.33
2023-05-12T09:56:30.116Z,4.90
2023-05-12T09:58:58.237Z,4.30
2023-05-12T10:01:27.215Z,4.40
2023-05-12T10:03:58.990Z,4.30
2023-05-12T10:06:28.389Z,4.33
2023-05-12T10:09:16.584Z,4.27
2023-05-12T10:11:44.282Z,4.70
2023-05-12T10:14:13.420Z,4.40
2023-05-12T10:16:41.628Z,4.63
2023-05-12T10:19:10.546Z,3.83
2023-05-12T10:21:43.382Z,4.20
2023-05-12T10:24:10.473Z,4.03
2023-05-12T10:26:39.783Z,4.43
2023-05-12T10:29:07.056Z,4.20
2023-05-12T10:31:37.577Z,4.20
2023-05-12T10:34:04.738Z,4.57
2023-05-12T10:36:31.962Z,3.93
2023-05-12T10:39:06.345Z,4.30
2023-05-12T10:41:35.479Z,4.00
2023-05-12T10:44:02.492Z,5.67
2023-05-12T10:46:30.420Z,3.43
2023-05-12T10:49:10.217Z,4.47
2023-05-12T10:51:47.082Z,3.77
2023-05-12T10:54:24.122Z,3.40
2023-05-12T10:56:51.924Z,3.67
2023-05-12T10:59:24.191Z,3.70
2023-05-12T11:02:03.089Z,3.73
2023-05-12T11:04:46.889Z,3.50
2023-05-12T11:07:18.573Z,3.30
2023-05-12T11:12:17.594Z,4.47
2023-05-12T11:14:46.461Z,3.10
2023-05-12T11:17:16.342Z,3.33
2023-05-12T11:19:50.728Z,3.60
2023-05-12T11:22:22.002Z,4.10
2023-05-12T11:24:53.000Z,3.00
2023-05-12T11:27:22.824Z,3.37
2023-05-12T11:30:04.714Z,3.27
2023-05-12T11:32:33.860Z,4.00
2023-05-12T11:35:19.852Z,3.13
2023-05-12T11:37:47.328Z,3.90
2023-05-12T11:40:20.993Z,3.10
2023-05-12T11:42:55.743Z,3.53
2023-05-12T11:45:30.581Z,3.40
2023-05-12T11:48:14.510Z,3.03
2023-05-12T11:50:49.069Z,3.27
2023-05-12T11:53:18.886Z,3.97
2023-05-12T11:55:57.140Z,3.93
2023-05-12T11:58:30.257Z,3.20
2023-05-12T12:01:10.114Z,3.80
2023-05-12T12:03:50.015Z,3.67
2023-05-12T12:06:17.629Z,3.47
2023-05-12T12:09:00.348Z,3.70
2023-05-12T12:11:28.278Z,3.17
2023-05-12T12:13:58.193Z,3.87
2023-05-12T12:16:30.039Z,3.33
2023-05-12T12:18:57.640Z,3.80
2023-05-12T12:21:28.395Z,3.73
2023-05-12T12:23:57.668Z,3.70
2023-05-12T12:26:24.520Z,3.60
2023-05-12T12:28:56.340Z,3.60
2023-05-12T12:31:23.520Z,3.60
2023-05-12T12:33:50.426Z,3.63
2023-05-12T12:36:19.771Z,3.67
2023-05-12T12:38:49.161Z,3.63
2023-05-12T12:41:16.160Z,3.33
2023-05-12T12:43:43.118Z,3.93
2023-05-12T12:46:12.454Z,3.70
2023-05-12T12:48:42.400Z,3.27
2023-05-12T12:51:14.390Z,3.90
2023-05-12T12:53:43.361Z,3.80
2023-05-12T12:56:10.313Z,3.67
2023-05-12T12:58:39.461Z,3.23
2023-05-12T13:01:06.835Z,3.80
2023-05-12T13:03:33.749Z,4.40
2023-05-12T13:06:00.746Z,3.90
2023-05-12T13:08:28.186Z,3.67
2023-05-12T13:10:55.788Z,3.67
2023-05-12T13:13:24.478Z,3.67
2023-05-12T13:15:53.177Z,3.90
2023-05-12T13:18:22.819Z,3.40
2023-05-12T13:20:54.144Z,4.20
2023-05-12T13:23:21.419Z,4.30
2023-05-12T13:25:51.982Z,3.97
2023-05-12T13:28:26.484Z,3.90
2023-05-12T13:30:53.426Z,3.93
2023-05-12T13:33:22.957Z,4.10
2023-05-12T13:35:49.963Z,4.20
2023-05-12T13:38:19.917Z,4.23
2023-05-12T13:40:48.964Z,4.00
2023-05-12T13:43:15.843Z,3.63
2023-05-12T13:45:42.848Z,3.77
2023-05-12T13:48:10.032Z,3.90
2023-05-12T13:50:39.265Z,3.43
2023-05-12T13:53:08.689Z,3.70
2023-05-12T13:55:40.585Z,3.70
2023-05-12T13:58:10.054Z,3.90
2023-05-12T14:00:37.056Z,3.40
2023-05-12T14:03:04.178Z,3.63
2023-05-12T14:05:31.186Z,4.50
2023-05-12T14:07:58.169Z,3.83
2023-05-12T14:10:28.108Z,3.10
2023-05-12T14:12:55.491Z,3.50
2023-05-12T14:15:36.093Z,3.67
2023-05-12T14:18:09.595Z,3.23
2023-05-12T14:20:36.616Z,3.53
2023-05-12T14:23:03.537Z,3.30
2023-05-12T14:25:30.823Z,3.50
2023-05-12T14:27:57.835Z,4.30
2023-05-12T14:30:27.144Z,4.30
2023-05-12T14:32:58.696Z,3.70
2023-05-12T14:35:27.565Z,3.90
2023-05-12T14:37:55.593Z,3.90
2023-05-12T14:40:31.998Z,3.77
2023-05-12T14:42:59.985Z,3.90
2023-05-12T14:45:27.090Z,3.70
2023-05-12T14:47:59.606Z,3.90
2023-05-12T14:50:28.233Z,3.53
2023-05-12T14:52:57.405Z,4.13
2023-05-12T14:55:29.837Z,3.83
2023-05-12T14:57:58.829Z,3.47
2023-05-12T15:00:25.911Z,3.77
2023-05-12T15:02:53.029Z,3.60
2023-05-12T15:05:29.525Z,3.83
2023-05-12T15:08:03.500Z,3.67
2023-05-12T15:10:30.434Z,3.90
2023-05-12T15:12:57.277Z,3.53
2023-05-12T15:15:24.455Z,3.80
2023-05-12T15:17:56.459Z,4.13
2023-05-12T15:20:23.320Z,3.70
2023-05-12T15:22:50.360Z,4.10
2023-05-12T15:25:17.224Z,3.83
2023-05-12T15:27:48.701Z,4.90
2023-05-12T15:30:18.108Z,3.77
2023-05-12T15:32:47.175Z,3.70
2023-05-12T15:35:14.117Z,3.50
2023-05-12T15:37:40.974Z,3.60
2023-05-12T15:40:13.052Z,3.50
2023-05-12T15:42:40.880Z,3.53
2023-05-12T15:45:09.702Z,3.50
2023-05-12T15:47:36.702Z,3.20
2023-05-12T15:50:04.343Z,3.73
2023-05-12T15:52:31.302Z,3.47
2023-05-12T15:54:58.251Z,3.10
2023-05-12T15:57:25.143Z,3.93
2023-05-12T15:59:58.680Z,5.47
2023-05-12T16:02:28.094Z,3.70
2023-05-12T16:04:55.007Z,3.60
2023-05-12T16:07:29.375Z,4.20
2023-05-12T16:09:57.358Z,3.93
2023-05-12T16:12:24.286Z,3.47
2023-05-12T16:14:53.716Z,4.13
2023-05-12T16:17:23.767Z,4.10
2023-05-12T16:19:53.109Z,4.00
2023-05-12T16:22:24.737Z,4.10
2023-05-12T16:24:53.622Z,3.70
2023-05-12T16:27:20.520Z,4.27
2023-05-12T16:29:49.426Z,3.93
2023-05-12T16:32:17.390Z,4.20
2023-05-12T16:34:46.930Z,4.27
2023-05-12T16:37:16.613Z,4.00
2023-05-12T16:39:43.524Z,4.30
2023-05-12T16:42:13.091Z,4.07
2023-05-12T16:44:40.201Z,3.93
2023-05-12T16:47:09.336Z,4.27
2023-05-12T16:49:38.691Z,4.37
2023-05-12T16:52:08.780Z,3.90
2023-05-12T16:54:36.711Z,3.53
2023-05-12T16:57:06.102Z,4.50
2023-05-12T16:59:33.063Z,3.80
2023-05-12T17:02:02.287Z,4.60
2023-05-12T17:04:29.370Z,3.97
2023-05-12T17:06:56.274Z,4.73
2023-05-12T17:09:25.273Z,4.37
2023-05-12T17:11:55.304Z,4.20
2023-05-12T17:14:23.421Z,4.43
2023-05-12T17:16:50.335Z,4.80
2023-05-12T17:19:22.277Z,4.20
2023-05-12T17:21:49.261Z,4.40
2023-05-12T17:24:19.665Z,4.50
2023-05-12T17:26:46.539Z,4.40
2023-05-12T17:29:16.035Z,3.87
2023-05-12T17:31:43.144Z,4.70
2023-05-12T17:34:10.240Z,4.37
2023-05-12T17:36:39.408Z,4.33
2023-05-12T17:39:06.758Z,4.40
2023-05-12T17:41:33.716Z,4.10
2023-05-12T17:44:03.236Z,4.03
2023-05-12T17:46:30.234Z,5.27
2023-05-12T17:48:57.113Z,5.70
2023-05-12T17:51:24.004Z,4.33
2023-05-12T17:53:51.076Z,4.57
2023-05-12T17:56:17.917Z,5.07
2023-05-12T17:58:44.778Z,4.80
2023-05-12T18:01:11.670Z,5.07
2023-05-12T18:03:38.815Z,4.27
2023-05-12T18:06:05.871Z,3.87
2023-05-12T18:08:35.834Z,5.30
2023-05-12T18:11:02.705Z,6.50
2023-05-12T18:13:31.779Z,4.27
2023-05-12T18:15:58.668Z,4.33
2023-05-12T18:18:26.279Z,4.30
2023-05-12T18:20:55.916Z,5.53
2023-05-12T18:23:22.823Z,5.10
2023-05-12T18:25:51.900Z,4.20
2023-05-12T18:28:21.334Z,5.47
2023-05-12T18:30:48.269Z,5.50
2023-05-12T18:33:17.733Z,5.10
2023-05-12T18:35:47.191Z,5.33
2023-05-12T18:38:14.206Z,5.10
2023-05-12T18:40:44.839Z,5.13
2023-05-12T18:43:12.029Z,5.10
2023-05-12T18:45:41.390Z,4.80
2023-05-12T18:48:08.325Z,5.00
2023-05-12T18:50:35.345Z,6.30
2023-05-12T18:53:02.434Z,5.40
2023-05-12T18:55:31.998Z,5.60
2023-05-12T18:58:01.850Z,5.50
2023-05-12T19:00:31.925Z,5.63
2023-05-12T19:02:59.477Z,5.40
2023-05-12T19:05:26.765Z,5.57
2023-05-12T19:07:53.683Z,6.27
2023-05-12T19:10:23.034Z,7.07
2023-05-12T19:12:52.317Z,7.53
2023-05-12T19:15:21.936Z,5.23
2023-05-12T19:17:49.597Z,6.00
2023-05-12T19:20:16.554Z,6.63
2023-05-12T19:22:44.056Z,5.63
2023-05-12T19:25:11.763Z,6.07
2023-05-12T19:27:38.822Z,5.43
2023-05-12T19:30:06.671Z,5.90
2023-05-12T19:32:33.815Z,5.93
2023-05-12T19:35:04.855Z,5.73
2023-05-12T19:37:33.332Z,6.30
2023-05-12T19:40:00.388Z,6.37
2023-05-12T19:42:27.783Z,7.50
2023-05-12T19:44:56.949Z,5.63
2023-05-12T19:47:25.637Z,6.60
2023-05-12T19:49:54.012Z,6.57
2023-05-12T19:52:22.112Z,6.17
2023-05-12T19:54:49.280Z,5.53
2023-05-12T19:57:21.357Z,6.80
2023-05-12T19:59:49.664Z,5.83
2023-05-12T20:02:17.246Z,5.53
2023-05-12T20:04:44.732Z,6.53
2023-05-12T20:07:14.296Z,6.97
2023-05-12T20:09:44.783Z,6.97
2023-05-12T20:12:14.528Z,6.97
2023-05-12T20:14:41.821Z,7.20
2023-05-12T20:17:12.387Z,6.20
2023-05-12T20:19:40.152Z,6.70
2023-05-12T20:22:07.791Z,6.30
2023-05-12T20:24:45.259Z,6.70
2023-05-12T20:27:18.315Z,6.57
2023-05-12T20:29:49.607Z,5.77
2023-05-12T20:32:18.759Z,6.27
2023-05-12T20:34:45.979Z,7.13
2023-05-12T20:37:14.050Z,6.97
2023-05-12T20:39:42.161Z,5.80
2023-05-12T20:42:12.290Z,6.97
2023-05-12T20:44:39.771Z,7.50
2023-05-12T20:47:07.109Z,7.60
2023-05-12T20:49:34.414Z,7.30
2023-05-12T20:52:04.426Z,6.83
2023-05-12T20:54:32.628Z,7.17
2023-05-12T20:57:02.314Z,8.20
2023-05-12T20:59:29.408Z,7.10
2023-05-12T21:01:58.982Z,7.77
2023-05-12T21:04:30.393Z,8.00
2023-05-12T21:07:00.398Z,7.93
2023-05-12T21:09:28.662Z,7.13
2023-05-12T21:12:02.295Z,8.07
2023-05-12T21:14:31.798Z,8.23
2023-05-12T21:16:58.930Z,7.10
2023-05-12T21:19:30.690Z,7.63
2023-05-12T21:22:00.907Z,8.40
2023-05-12T21:24:28.078Z,7.70
2023-05-12T21:26:55.419Z,8.23
2023-05-12T21:29:22.563Z,8.73
2023-05-12T21:31:49.562Z,7.63
2023-05-12T21:34:16.619Z,7.10
2023-05-12T21:36:43.559Z,8.17
2023-05-12T21:39:10.504Z,7.57
2023-05-12T21:41:40.257Z,8.03
2023-05-12T21:44:09.210Z,7.60
2023-05-12T21:46:40.139Z,7.30
2023-05-12T21:49:07.212Z,7.50
2023-05-12T21:51:34.382Z,8.00
2023-05-12T21:54:06.020Z,7.17
2023-05-12T21:56:33.387Z,7.10
2023-05-12T21:59:03.227Z,7.37
2023-05-12T22:01:32.454Z,7.07
2023-05-12T22:03:59.635Z,7.40
2023-05-12T22:06:26.989Z,7.47
2023-05-12T22:08:54.195Z,7.10
2023-05-12T22:11:21.773Z,7.50
2023-05-12T22:13:51.397Z,6.93
2023-05-12T22:16:23.612Z,7.20
2023-05-12T22:18:55.342Z,7.27
2023-05-12T22:21:24.928Z,6.97
2023-05-12T22:23:54.158Z,6.50
2023-05-12T22:26:21.282Z,7.00
2023-05-12T22:28:50.325Z,6.77
2023-05-12T22:31:17.308Z,7.10
2023-05-12T22:33:44.851Z,7.73
2023-05-12T22:36:11.798Z,7.60
2023-05-12T22:38:38.884Z,7.30
2023-05-12T22:41:05.960Z,7.83
2023-05-12T22:43:33.109Z,7.50
2023-05-12T22:46:00.171Z,7.53
2023-05-12T22:48:27.374Z,8.20
2023-05-12T22:50:54.807Z,7.30
2023-05-12T22:53:22.053Z,6.77
2023-05-12T22:55:49.462Z,7.17
2023-05-12T22:58:21.012Z,6.93
2023-05-12T23:00:48.120Z,7.23
2023-05-12T23:03:15.175Z,7.40
2023-05-12T23:05:42.140Z,7.30
2023-05-12T23:08:09.509Z,6.90
2023-05-12T23:10:36.552Z,7.63
2023-05-12T23:13:03.424Z,7.27
2023-05-12T23:15:30.725Z,7.60
2023-05-12T23:18:00.173Z,7.73
2023-05-12T23:20:27.146Z,6.60
2023-05-12T23:22:54.023Z,6.90
2023-05-12T23:25:23.588Z,7.13
2023-05-12T23:27:53.010Z,7.27
2023-05-12T23:30:20.072Z,6.70
2023-05-12T23:32:50.422Z,6.37
2023-05-12T23:35:20.148Z,7.47
2023-05-12T23:37:49.613Z,7.13
2023-05-12T23:40:16.733Z,7.40
2023-05-12T23:42:43.578Z,7.27
2023-05-12T23:45:13.548Z,6.77
2023-05-12T23:47:40.729Z,7.80
2023-05-12T23:50:08.956Z,6.90
2023-05-12T23:52:36.039Z,7.03
2023-05-12T23:55:02.964Z,7.60
2023-05-12T23:57:29.874Z,8.27
2023-05-12T23:59:59.765Z,6.50
